sensor_id;sensor_type;location;lat;lon;timestamp;P1;durP1;ratioP1;P2;durP2;ratioP2
66487;SDS011;53304;54.550;18.526;2023-03-04T00:00:29;4.78;;;1.90;;
66487;SDS011;53304;54.550;18.526;2023-03-04T00:02:54;3.92;;;1.77;;
66487;SDS011;53304;54.550;18.526;2023-03-04T00:05:19;4.00;;;1.55;;
66487;SDS011;53304;54.550;18.526;2023-03-04T00:07:45;3.80;;;1.70;;
66487;SDS011;53304;54.550;18.526;2023-03-04T00:10:12;4.85;;;1.60;;
66487;SDS011;53304;54.550;18.526;2023-03-04T00:12:40;5.85;;;1.70;;
66487;SDS011;53304;54.550;18.526;2023-03-04T00:15:08;4.32;;;1.48;;
66487;SDS011;53304;54.550;18.526;2023-03-04T00:17:36;4.60;;;1.40;;
66487;SDS011;53304;54.550;18.526;2023-03-04T00:20:02;3.80;;;1.50;;
66487;SDS011;53304;54.550;18.526;2023-03-04T00:22:27;4.18;;;1.50;;
66487;SDS011;53304;54.550;18.526;2023-03-04T00:24:53;3.90;;;1.67;;
66487;SDS011;53304;54.550;18.526;2023-03-04T00:27:18;4.70;;;1.63;;
66487;SDS011;53304;54.550;18.526;2023-03-04T00:29:43;2.88;;;1.42;;
66487;SDS011;53304;54.550;18.526;2023-03-04T00:32:11;3.22;;;1.60;;
66487;SDS011;53304;54.550;18.526;2023-03-04T00:34:40;3.88;;;1.60;;
66487;SDS011;53304;54.550;18.526;2023-03-04T00:37:07;5.78;;;1.67;;
66487;SDS011;53304;54.550;18.526;2023-03-04T00:39:34;4.28;;;1.58;;
66487;SDS011;53304;54.550;18.526;2023-03-04T00:42:02;2.38;;;1.30;;
66487;SDS011;53304;54.550;18.526;2023-03-04T00:44:30;2.75;;;1.30;;
66487;SDS011;53304;54.550;18.526;2023-03-04T00:46:58;3.47;;;1.58;;
66487;SDS011;53304;54.550;18.526;2023-03-04T00:49:23;3.92;;;1.70;;
66487;SDS011;53304;54.550;18.526;2023-03-04T00:51:49;3.75;;;1.60;;
66487;SDS011;53304;54.550;18.526;2023-03-04T00:54:14;4.28;;;1.40;;
66487;SDS011;53304;54.550;18.526;2023-03-04T00:56:39;2.90;;;1.50;;
66487;SDS011;53304;54.550;18.526;2023-03-04T00:59:05;6.15;;;1.58;;
66487;SDS011;53304;54.550;18.526;2023-03-04T01:01:32;5.65;;;1.42;;
66487;SDS011;53304;54.550;18.526;2023-03-04T01:03:58;5.20;;;1.42;;
66487;SDS011;53304;54.550;18.526;2023-03-04T01:06:23;5.15;;;1.30;;
66487;SDS011;53304;54.550;18.526;2023-03-04T01:08:51;3.03;;;1.40;;
66487;SDS011;53304;54.550;18.526;2023-03-04T01:11:18;3.05;;;1.35;;
66487;SDS011;53304;54.550;18.526;2023-03-04T01:13:44;2.75;;;1.33;;
66487;SDS011;53304;54.550;18.526;2023-03-04T01:16:12;3.33;;;1.40;;
66487;SDS011;53304;54.550;18.526;2023-03-04T01:18:40;6.80;;;1.48;;
66487;SDS011;53304;54.550;18.526;2023-03-04T01:21:05;3.75;;;1.45;;
66487;SDS011;53304;54.550;18.526;2023-03-04T01:23:31;3.78;;;1.42;;
66487;SDS011;53304;54.550;18.526;2023-03-04T01:25:56;3.25;;;1.33;;
66487;SDS011;53304;54.550;18.526;2023-03-04T01:28:22;2.53;;;1.20;;
66487;SDS011;53304;54.550;18.526;2023-03-04T01:30:47;3.17;;;1.33;;
66487;SDS011;53304;54.550;18.526;2023-03-04T01:33:13;4.90;;;1.38;;
66487;SDS011;53304;54.550;18.526;2023-03-04T01:35:41;3.63;;;1.50;;
66487;SDS011;53304;54.550;18.526;2023-03-04T01:38:08;2.30;;;1.23;;
66487;SDS011;53304;54.550;18.526;2023-03-04T01:40:36;4.40;;;1.30;;
66487;SDS011;53304;54.550;18.526;2023-03-04T01:43:04;3.72;;;1.20;;
66487;SDS011;53304;54.550;18.526;2023-03-04T01:45:32;5.07;;;1.50;;
66487;SDS011;53304;54.550;18.526;2023-03-04T01:48:01;3.17;;;1.30;;
66487;SDS011;53304;54.550;18.526;2023-03-04T01:50:28;3.80;;;1.42;;
66487;SDS011;53304;54.550;18.526;2023-03-04T01:53:00;2.92;;;1.15;;
66487;SDS011;53304;54.550;18.526;2023-03-04T01:55:26;6.53;;;1.40;;
66487;SDS011;53304;54.550;18.526;2023-03-04T01:57:52;2.78;;;1.17;;
66487;SDS011;53304;54.550;18.526;2023-03-04T02:02:47;2.80;;;1.20;;
66487;SDS011;53304;54.550;18.526;2023-03-04T02:05:14;2.35;;;1.13;;
66487;SDS011;53304;54.550;18.526;2023-03-04T02:07:40;2.22;;;1.17;;
66487;SDS011;53304;54.550;18.526;2023-03-04T02:10:09;4.38;;;1.50;;
66487;SDS011;53304;54.550;18.526;2023-03-04T02:12:35;4.30;;;1.13;;
66487;SDS011;53304;54.550;18.526;2023-03-04T02:15:00;3.70;;;1.20;;
66487;SDS011;53304;54.550;18.526;2023-03-04T02:17:26;4.15;;;1.30;;
66487;SDS011;53304;54.550;18.526;2023-03-04T02:22:39;3.10;;;1.30;;
66487;SDS011;53304;54.550;18.526;2023-03-04T02:25:16;2.78;;;1.23;;
66487;SDS011;53304;54.550;18.526;2023-03-04T02:27:44;3.00;;;1.20;;
66487;SDS011;53304;54.550;18.526;2023-03-04T02:30:10;2.30;;;1.00;;
66487;SDS011;53304;54.550;18.526;2023-03-04T02:32:36;3.10;;;1.15;;
66487;SDS011;53304;54.550;18.526;2023-03-04T02:35:04;5.15;;;1.40;;
66487;SDS011;53304;54.550;18.526;2023-03-04T02:37:30;6.22;;;1.27;;
66487;SDS011;53304;54.550;18.526;2023-03-04T02:39:58;4.32;;;1.20;;
66487;SDS011;53304;54.550;18.526;2023-03-04T02:42:27;4.28;;;1.30;;
66487;SDS011;53304;54.550;18.526;2023-03-04T02:44:59;4.20;;;1.38;;
66487;SDS011;53304;54.550;18.526;2023-03-04T02:47:25;5.22;;;1.60;;
66487;SDS011;53304;54.550;18.526;2023-03-04T02:49:53;3.97;;;1.20;;
66487;SDS011;53304;54.550;18.526;2023-03-04T02:52:23;2.75;;;1.05;;
66487;SDS011;53304;54.550;18.526;2023-03-04T02:54:52;3.40;;;1.05;;
66487;SDS011;53304;54.550;18.526;2023-03-04T02:57:24;3.53;;;1.05;;
66487;SDS011;53304;54.550;18.526;2023-03-04T02:59:54;4.03;;;1.23;;
66487;SDS011;53304;54.550;18.526;2023-03-04T03:02:20;3.30;;;1.10;;
66487;SDS011;53304;54.550;18.526;2023-03-04T03:04:53;3.75;;;1.10;;
66487;SDS011;53304;54.550;18.526;2023-03-04T03:07:23;2.88;;;1.00;;
66487;SDS011;53304;54.550;18.526;2023-03-04T03:09:54;2.92;;;1.00;;
66487;SDS011;53304;54.550;18.526;2023-03-04T03:12:24;1.88;;;0.90;;
66487;SDS011;53304;54.550;18.526;2023-03-04T03:14:51;2.65;;;1.08;;
66487;SDS011;53304;54.550;18.526;2023-03-04T03:17:17;2.83;;;1.00;;
66487;SDS011;53304;54.550;18.526;2023-03-04T03:19:45;3.80;;;1.10;;
66487;SDS011;53304;54.550;18.526;2023-03-04T03:22:10;1.90;;;1.05;;
66487;SDS011;53304;54.550;18.526;2023-03-04T03:24:36;2.90;;;1.15;;
66487;SDS011;53304;54.550;18.526;2023-03-04T03:27:01;3.40;;;1.25;;
66487;SDS011;53304;54.550;18.526;2023-03-04T03:29:27;3.28;;;1.10;;
66487;SDS011;53304;54.550;18.526;2023-03-04T03:31:54;4.40;;;1.25;;
66487;SDS011;53304;54.550;18.526;2023-03-04T03:34:21;4.05;;;1.40;;
66487;SDS011;53304;54.550;18.526;2023-03-04T03:36:49;2.35;;;0.90;;
66487;SDS011;53304;54.550;18.526;2023-03-04T03:39:17;2.83;;;0.90;;
66487;SDS011;53304;54.550;18.526;2023-03-04T03:41:44;3.45;;;1.15;;
66487;SDS011;53304;54.550;18.526;2023-03-04T03:44:12;2.58;;;0.90;;
66487;SDS011;53304;54.550;18.526;2023-03-04T03:46:38;3.28;;;1.08;;
66487;SDS011;53304;54.550;18.526;2023-03-04T03:49:06;3.67;;;1.10;;
66487;SDS011;53304;54.550;18.526;2023-03-04T03:51:32;2.15;;;0.95;;
66487;SDS011;53304;54.550;18.526;2023-03-04T03:53:57;3.42;;;1.30;;
66487;SDS011;53304;54.550;18.526;2023-03-04T03:56:25;2.22;;;1.10;;
66487;SDS011;53304;54.550;18.526;2023-03-04T03:58:53;4.05;;;1.20;;
66487;SDS011;53304;54.550;18.526;2023-03-04T04:01:21;3.53;;;1.10;;
66487;SDS011;53304;54.550;18.526;2023-03-04T04:03:46;4.35;;;1.10;;
66487;SDS011;53304;54.550;18.526;2023-03-04T04:06:14;2.95;;;1.13;;
66487;SDS011;53304;54.550;18.526;2023-03-04T04:08:44;4.03;;;1.10;;
66487;SDS011;53304;54.550;18.526;2023-03-04T04:11:10;2.78;;;1.23;;
66487;SDS011;53304;54.550;18.526;2023-03-04T04:13:36;3.22;;;1.20;;
66487;SDS011;53304;54.550;18.526;2023-03-04T04:16:02;2.70;;;0.98;;
66487;SDS011;53304;54.550;18.526;2023-03-04T04:18:29;3.00;;;1.15;;
66487;SDS011;53304;54.550;18.526;2023-03-04T04:20:57;2.95;;;1.20;;
66487;SDS011;53304;54.550;18.526;2023-03-04T04:23:23;2.83;;;1.10;;
66487;SDS011;53304;54.550;18.526;2023-03-04T04:25:51;3.15;;;1.20;;
66487;SDS011;53304;54.550;18.526;2023-03-04T04:28:19;3.42;;;1.27;;
66487;SDS011;53304;54.550;18.526;2023-03-04T04:30:44;3.63;;;1.10;;
66487;SDS011;53304;54.550;18.526;2023-03-04T04:33:12;5.75;;;1.27;;
66487;SDS011;53304;54.550;18.526;2023-03-04T04:35:40;3.88;;;1.10;;
66487;SDS011;53304;54.550;18.526;2023-03-04T04:38:05;3.58;;;1.25;;
66487;SDS011;53304;54.550;18.526;2023-03-04T04:40:34;3.53;;;0.90;;
66487;SDS011;53304;54.550;18.526;2023-03-04T04:43:00;3.20;;;1.20;;
66487;SDS011;53304;54.550;18.526;2023-03-04T04:45:25;4.03;;;1.33;;
66487;SDS011;53304;54.550;18.526;2023-03-04T04:47:53;1.88;;;0.90;;
66487;SDS011;53304;54.550;18.526;2023-03-04T04:50:21;3.22;;;1.00;;
66487;SDS011;53304;54.550;18.526;2023-03-04T04:52:47;3.00;;;1.00;;
66487;SDS011;53304;54.550;18.526;2023-03-04T04:55:15;3.67;;;1.20;;
66487;SDS011;53304;54.550;18.526;2023-03-04T04:57:43;3.78;;;1.00;;
66487;SDS011;53304;54.550;18.526;2023-03-04T05:00:09;3.88;;;1.13;;
66487;SDS011;53304;54.550;18.526;2023-03-04T05:02:35;1.88;;;0.95;;
66487;SDS011;53304;54.550;18.526;2023-03-04T05:05:04;2.60;;;0.98;;
66487;SDS011;53304;54.550;18.526;2023-03-04T05:07:33;3.70;;;1.30;;
66487;SDS011;53304;54.550;18.526;2023-03-04T05:09:59;4.75;;;1.10;;
66487;SDS011;53304;54.550;18.526;2023-03-04T05:12:27;2.95;;;1.20;;
66487;SDS011;53304;54.550;18.526;2023-03-04T05:14:52;4.03;;;1.10;;
66487;SDS011;53304;54.550;18.526;2023-03-04T05:17:17;4.18;;;1.23;;
66487;SDS011;53304;54.550;18.526;2023-03-04T05:19:43;2.38;;;0.93;;
66487;SDS011;53304;54.550;18.526;2023-03-04T05:22:08;2.80;;;1.00;;
66487;SDS011;53304;54.550;18.526;2023-03-04T05:24:36;2.65;;;1.00;;
66487;SDS011;53304;54.550;18.526;2023-03-04T05:27:01;3.38;;;1.00;;
66487;SDS011;53304;54.550;18.526;2023-03-04T05:29:27;5.65;;;0.80;;
66487;SDS011;53304;54.550;18.526;2023-03-04T05:31:57;2.38;;;0.82;;
66487;SDS011;53304;54.550;18.526;2023-03-04T05:34:22;4.05;;;1.20;;
66487;SDS011;53304;54.550;18.526;2023-03-04T05:36:50;5.00;;;1.30;;
66487;SDS011;53304;54.550;18.526;2023-03-04T05:39:15;3.88;;;1.10;;
66487;SDS011;53304;54.550;18.526;2023-03-04T05:41:41;2.28;;;1.10;;
66487;SDS011;53304;54.550;18.526;2023-03-04T05:44:08;2.65;;;0.90;;
66487;SDS011;53304;54.550;18.526;2023-03-04T05:46:34;3.88;;;1.42;;
66487;SDS011;53304;54.550;18.526;2023-03-04T05:48:59;1.92;;;0.90;;
66487;SDS011;53304;54.550;18.526;2023-03-04T05:51:25;3.38;;;0.90;;
66487;SDS011;53304;54.550;18.526;2023-03-04T05:53:53;2.78;;;0.90;;
66487;SDS011;53304;54.550;18.526;2023-03-04T05:56:20;2.95;;;1.00;;
66487;SDS011;53304;54.550;18.526;2023-03-04T05:58:46;4.00;;;1.30;;
66487;SDS011;53304;54.550;18.526;2023-03-04T06:01:18;3.17;;;1.10;;
66487;SDS011;53304;54.550;18.526;2023-03-04T06:03:44;3.42;;;0.90;;
66487;SDS011;53304;54.550;18.526;2023-03-04T06:06:13;1.88;;;1.00;;
66487;SDS011;53304;54.550;18.526;2023-03-04T06:08:41;4.57;;;0.95;;
66487;SDS011;53304;54.550;18.526;2023-03-04T06:11:06;3.10;;;1.10;;
66487;SDS011;53304;54.550;18.526;2023-03-04T06:13:32;6.82;;;1.35;;
66487;SDS011;53304;54.550;18.526;2023-03-04T06:15:58;3.05;;;1.05;;
66487;SDS011;53304;54.550;18.526;2023-03-04T06:18:26;2.15;;;1.10;;
66487;SDS011;53304;54.550;18.526;2023-03-04T06:20:56;2.92;;;1.08;;
66487;SDS011;53304;54.550;18.526;2023-03-04T06:23:26;4.55;;;1.15;;
66487;SDS011;53304;54.550;18.526;2023-03-04T06:25:54;3.38;;;1.13;;
66487;SDS011;53304;54.550;18.526;2023-03-04T06:28:24;3.72;;;1.10;;
66487;SDS011;53304;54.550;18.526;2023-03-04T06:30:53;14.10;;;1.80;;
66487;SDS011;53304;54.550;18.526;2023-03-04T06:33:22;9.82;;;1.70;;
66487;SDS011;53304;54.550;18.526;2023-03-04T06:35:47;5.45;;;1.38;;
66487;SDS011;53304;54.550;18.526;2023-03-04T06:38:13;7.30;;;1.42;;
66487;SDS011;53304;54.550;18.526;2023-03-04T06:40:38;2.50;;;1.13;;
66487;SDS011;53304;54.550;18.526;2023-03-04T06:43:04;4.40;;;1.13;;
66487;SDS011;53304;54.550;18.526;2023-03-04T06:45:29;8.43;;;1.10;;
66487;SDS011;53304;54.550;18.526;2023-03-04T06:47:54;5.43;;;1.00;;
66487;SDS011;53304;54.550;18.526;2023-03-04T06:50:20;6.05;;;1.20;;
66487;SDS011;53304;54.550;18.526;2023-03-04T06:52:45;2.95;;;1.10;;
66487;SDS011;53304;54.550;18.526;2023-03-04T06:55:11;3.15;;;1.33;;
66487;SDS011;53304;54.550;18.526;2023-03-04T06:57:40;3.65;;;1.08;;
66487;SDS011;53304;54.550;18.526;2023-03-04T07:00:09;3.35;;;1.10;;
66487;SDS011;53304;54.550;18.526;2023-03-04T07:02:38;3.78;;;0.90;;
66487;SDS011;53304;54.550;18.526;2023-03-04T07:05:06;3.78;;;1.23;;
66487;SDS011;53304;54.550;18.526;2023-03-04T07:07:36;3.08;;;1.02;;
66487;SDS011;53304;54.550;18.526;2023-03-04T07:10:02;7.57;;;1.27;;
66487;SDS011;53304;54.550;18.526;2023-03-04T07:12:28;2.83;;;0.98;;
66487;SDS011;53304;54.550;18.526;2023-03-04T07:14:56;2.90;;;1.23;;
66487;SDS011;53304;54.550;18.526;2023-03-04T07:17:24;3.42;;;0.95;;
66487;SDS011;53304;54.550;18.526;2023-03-04T07:19:50;4.25;;;1.30;;
66487;SDS011;53304;54.550;18.526;2023-03-04T07:22:20;2.22;;;0.90;;
66487;SDS011;53304;54.550;18.526;2023-03-04T07:24:45;3.55;;;1.15;;
66487;SDS011;53304;54.550;18.526;2023-03-04T07:27:13;1.33;;;0.75;;
66487;SDS011;53304;54.550;18.526;2023-03-04T07:29:42;4.03;;;1.00;;
66487;SDS011;53304;54.550;18.526;2023-03-04T07:32:10;1.63;;;0.88;;
66487;SDS011;53304;54.550;18.526;2023-03-04T07:34:37;2.10;;;1.00;;
66487;SDS011;53304;54.550;18.526;2023-03-04T07:37:03;2.85;;;1.00;;
66487;SDS011;53304;54.550;18.526;2023-03-04T07:39:28;4.10;;;1.00;;
66487;SDS011;53304;54.550;18.526;2023-03-04T07:41:54;2.92;;;1.00;;
66487;SDS011;53304;54.550;18.526;2023-03-04T07:44:20;2.03;;;0.70;;
66487;SDS011;53304;54.550;18.526;2023-03-04T07:46:47;3.72;;;0.95;;
66487;SDS011;53304;54.550;18.526;2023-03-04T07:49:13;2.00;;;0.90;;
66487;SDS011;53304;54.550;18.526;2023-03-04T07:51:38;2.33;;;0.80;;
66487;SDS011;53304;54.550;18.526;2023-03-04T07:54:04;2.38;;;0.90;;
66487;SDS011;53304;54.550;18.526;2023-03-04T07:56:31;2.08;;;0.82;;
66487;SDS011;53304;54.550;18.526;2023-03-04T07:58:57;2.05;;;0.90;;
66487;SDS011;53304;54.550;18.526;2023-03-04T08:01:37;3.83;;;1.00;;
66487;SDS011;53304;54.550;18.526;2023-03-04T08:04:06;1.65;;;0.70;;
66487;SDS011;53304;54.550;18.526;2023-03-04T08:06:32;4.03;;;0.90;;
66487;SDS011;53304;54.550;18.526;2023-03-04T08:09:04;4.72;;;0.98;;
66487;SDS011;53304;54.550;18.526;2023-03-04T08:11:35;1.48;;;0.75;;
66487;SDS011;53304;54.550;18.526;2023-03-04T08:14:03;1.50;;;0.80;;
66487;SDS011;53304;54.550;18.526;2023-03-04T08:16:29;2.05;;;0.80;;
66487;SDS011;53304;54.550;18.526;2023-03-04T08:18:58;0.90;;;0.70;;
66487;SDS011;53304;54.550;18.526;2023-03-04T08:21:25;2.20;;;0.65;;
66487;SDS011;53304;54.550;18.526;2023-03-04T08:23:53;1.80;;;0.77;;
66487;SDS011;53304;54.550;18.526;2023-03-04T08:26:26;3.20;;;0.80;;
66487;SDS011;53304;54.550;18.526;2023-03-04T08:28:56;2.47;;;0.90;;
66487;SDS011;53304;54.550;18.526;2023-03-04T08:31:22;1.60;;;0.80;;
66487;SDS011;53304;54.550;18.526;2023-03-04T08:33:48;2.42;;;0.75;;
66487;SDS011;53304;54.550;18.526;2023-03-04T08:36:15;1.63;;;0.77;;
66487;SDS011;53304;54.550;18.526;2023-03-04T08:38:40;3.20;;;0.90;;
66487;SDS011;53304;54.550;18.526;2023-03-04T08:41:06;2.10;;;0.65;;
66487;SDS011;53304;54.550;18.526;2023-03-04T08:43:32;3.55;;;1.08;;
66487;SDS011;53304;54.550;18.526;2023-03-04T08:45:58;1.27;;;0.75;;
66487;SDS011;53304;54.550;18.526;2023-03-04T08:48:24;2.58;;;0.93;;
66487;SDS011;53304;54.550;18.526;2023-03-04T08:50:51;3.30;;;0.90;;
66487;SDS011;53304;54.550;18.526;2023-03-04T08:53:19;3.40;;;1.00;;
66487;SDS011;53304;54.550;18.526;2023-03-04T08:55:47;1.40;;;0.70;;
66487;SDS011;53304;54.550;18.526;2023-03-04T08:58:15;2.80;;;0.90;;
66487;SDS011;53304;54.550;18.526;2023-03-04T09:00:43;4.55;;;1.27;;
66487;SDS011;53304;54.550;18.526;2023-03-04T09:03:12;4.07;;;0.93;;
66487;SDS011;53304;54.550;18.526;2023-03-04T09:05:38;1.40;;;0.90;;
66487;SDS011;53304;54.550;18.526;2023-03-04T09:08:04;3.10;;;0.90;;
66487;SDS011;53304;54.550;18.526;2023-03-04T09:10:29;3.63;;;1.10;;
66487;SDS011;53304;54.550;18.526;2023-03-04T09:12:55;4.78;;;1.30;;
66487;SDS011;53304;54.550;18.526;2023-03-04T09:15:20;2.80;;;1.05;;
66487;SDS011;53304;54.550;18.526;2023-03-04T09:17:46;4.72;;;1.00;;
66487;SDS011;53304;54.550;18.526;2023-03-04T09:20:12;2.53;;;0.98;;
66487;SDS011;53304;54.550;18.526;2023-03-04T09:22:42;3.30;;;1.20;;
66487;SDS011;53304;54.550;18.526;2023-03-04T09:25:10;4.07;;;1.10;;
66487;SDS011;53304;54.550;18.526;2023-03-04T09:27:40;2.50;;;1.02;;
66487;SDS011;53304;54.550;18.526;2023-03-04T09:30:08;2.38;;;1.13;;
66487;SDS011;53304;54.550;18.526;2023-03-04T09:32:34;3.42;;;1.00;;
66487;SDS011;53304;54.550;18.526;2023-03-04T09:35:00;3.80;;;1.10;;
66487;SDS011;53304;54.550;18.526;2023-03-04T09:37:25;2.70;;;0.90;;
66487;SDS011;53304;54.550;18.526;2023-03-04T09:39:51;2.20;;;0.80;;
66487;SDS011;53304;54.550;18.526;2023-03-04T09:42:21;2.38;;;0.90;;
66487;SDS011;53304;54.550;18.526;2023-03-04T09:44:50;2.40;;;0.95;;
66487;SDS011;53304;54.550;18.526;2023-03-04T09:47:16;3.25;;;1.13;;
66487;SDS011;53304;54.550;18.526;2023-03-04T09:49:52;2.05;;;0.90;;
66487;SDS011;53304;54.550;18.526;2023-03-04T09:57:22;2.17;;;0.90;;
66487;SDS011;53304;54.550;18.526;2023-03-04T10:02:43;2.15;;;0.75;;
66487;SDS011;53304;54.550;18.526;2023-03-04T10:05:18;4.40;;;1.08;;
66487;SDS011;53304;54.550;18.526;2023-03-04T10:07:49;1.70;;;0.87;;
66487;SDS011;53304;54.550;18.526;2023-03-04T10:12:50;2.80;;;0.70;;
66487;SDS011;53304;54.550;18.526;2023-03-04T10:18:41;2.70;;;1.00;;
66487;SDS011;53304;54.550;18.526;2023-03-04T10:23:41;2.05;;;0.70;;
66487;SDS011;53304;54.550;18.526;2023-03-04T10:26:17;1.42;;;0.80;;
66487;SDS011;53304;54.550;18.526;2023-03-04T10:28:45;1.58;;;0.80;;
66487;SDS011;53304;54.550;18.526;2023-03-04T10:33:41;2.00;;;0.90;;
66487;SDS011;53304;54.550;18.526;2023-03-04T10:38:47;2.38;;;1.08;;
66487;SDS011;53304;54.550;18.526;2023-03-04T10:41:19;1.70;;;0.77;;
66487;SDS011;53304;54.550;18.526;2023-03-04T10:43:59;4.50;;;1.00;;
66487;SDS011;53304;54.550;18.526;2023-03-04T10:46:40;3.63;;;1.00;;
66487;SDS011;53304;54.550;18.526;2023-03-04T10:49:08;4.45;;;1.05;;
66487;SDS011;53304;54.550;18.526;2023-03-04T10:51:41;8.75;;;0.90;;
66487;SDS011;53304;54.550;18.526;2023-03-04T10:54:19;2.65;;;0.90;;
66487;SDS011;53304;54.550;18.526;2023-03-04T10:56:55;1.67;;;0.80;;
66487;SDS011;53304;54.550;18.526;2023-03-04T11:07:55;7.10;;;1.08;;
66487;SDS011;53304;54.550;18.526;2023-03-04T11:15:47;10.32;;;1.90;;
66487;SDS011;53304;54.550;18.526;2023-03-04T11:18:16;8.20;;;1.33;;
66487;SDS011;53304;54.550;18.526;2023-03-04T11:20:45;9.40;;;1.42;;
66487;SDS011;53304;54.550;18.526;2023-03-04T11:23:17;7.68;;;1.48;;
66487;SDS011;53304;54.550;18.526;2023-03-04T11:25:51;5.07;;;1.10;;
66487;SDS011;53304;54.550;18.526;2023-03-04T11:28:36;6.45;;;1.15;;
66487;SDS011;53304;54.550;18.526;2023-03-04T11:31:09;5.43;;;1.10;;
66487;SDS011;53304;54.550;18.526;2023-03-04T11:33:49;4.20;;;1.02;;
66487;SDS011;53304;54.550;18.526;2023-03-04T11:45:10;6.03;;;1.20;;
66487;SDS011;53304;54.550;18.526;2023-03-04T11:53:30;3.88;;;1.10;;
66487;SDS011;53304;54.550;18.526;2023-03-04T11:58:37;3.83;;;1.10;;
66487;SDS011;53304;54.550;18.526;2023-03-04T12:01:32;3.58;;;0.90;;
66487;SDS011;53304;54.550;18.526;2023-03-04T12:04:16;3.22;;;1.35;;
66487;SDS011;53304;54.550;18.526;2023-03-04T12:22:42;2.50;;;1.02;;
66487;SDS011;53304;54.550;18.526;2023-03-04T12:36:09;3.92;;;1.30;;
66487;SDS011;53304;54.550;18.526;2023-03-04T12:41:22;3.33;;;1.40;;
66487;SDS011;53304;54.550;18.526;2023-03-04T12:49:43;3.75;;;1.27;;
66487;SDS011;53304;54.550;18.526;2023-03-04T12:52:15;2.10;;;1.20;;
66487;SDS011;53304;54.550;18.526;2023-03-04T12:54:57;2.30;;;1.10;;
66487;SDS011;53304;54.550;18.526;2023-03-04T12:57:27;3.45;;;1.15;;
66487;SDS011;53304;54.550;18.526;2023-03-04T13:10:45;3.00;;;0.90;;
66487;SDS011;53304;54.550;18.526;2023-03-04T13:16:05;2.45;;;1.00;;
66487;SDS011;53304;54.550;18.526;2023-03-04T13:18:51;2.80;;;0.80;;
66487;SDS011;53304;54.550;18.526;2023-03-04T13:21:20;3.13;;;0.90;;
66487;SDS011;53304;54.550;18.526;2023-03-04T13:23:49;2.90;;;0.80;;
66487;SDS011;53304;54.550;18.526;2023-03-04T13:34:51;1.98;;;0.85;;
66487;SDS011;53304;54.550;18.526;2023-03-04T13:42:47;9.30;;;1.60;;
66487;SDS011;53304;54.550;18.526;2023-03-04T13:45:35;5.13;;;1.10;;
66487;SDS011;53304;54.550;18.526;2023-03-04T13:48:01;8.50;;;1.17;;
66487;SDS011;53304;54.550;18.526;2023-03-04T13:50:35;4.22;;;1.30;;
66487;SDS011;53304;54.550;18.526;2023-03-04T13:56:18;6.75;;;1.05;;
66487;SDS011;53304;54.550;18.526;2023-03-04T13:58:49;4.43;;;0.90;;
66487;SDS011;53304;54.550;18.526;2023-03-04T14:01:29;4.68;;;1.13;;
66487;SDS011;53304;54.550;18.526;2023-03-04T14:03:56;2.63;;;0.60;;
66487;SDS011;53304;54.550;18.526;2023-03-04T14:08:52;8.32;;;1.10;;
66487;SDS011;53304;54.550;18.526;2023-03-04T14:11:23;1.95;;;0.70;;
66487;SDS011;53304;54.550;18.526;2023-03-04T14:14:06;2.85;;;0.68;;
66487;SDS011;53304;54.550;18.526;2023-03-04T14:16:37;2.35;;;0.77;;
66487;SDS011;53304;54.550;18.526;2023-03-04T14:19:12;1.85;;;0.60;;
66487;SDS011;53304;54.550;18.526;2023-03-04T14:21:43;2.03;;;0.70;;
66487;SDS011;53304;54.550;18.526;2023-03-04T14:24:15;2.08;;;0.70;;
66487;SDS011;53304;54.550;18.526;2023-03-04T14:26:44;1.50;;;0.57;;
66487;SDS011;53304;54.550;18.526;2023-03-04T14:31:48;1.67;;;0.68;;
66487;SDS011;53304;54.550;18.526;2023-03-04T14:34:21;3.60;;;1.00;;
66487;SDS011;53304;54.550;18.526;2023-03-04T14:36:49;1.20;;;0.60;;
66487;SDS011;53304;54.550;18.526;2023-03-04T14:39:17;2.08;;;0.68;;
66487;SDS011;53304;54.550;18.526;2023-03-04T14:41:46;1.00;;;0.60;;
66487;SDS011;53304;54.550;18.526;2023-03-04T14:44:46;1.52;;;0.52;;
66487;SDS011;53304;54.550;18.526;2023-03-04T14:49:38;1.58;;;0.55;;
66487;SDS011;53304;54.550;18.526;2023-03-04T14:52:04;1.33;;;0.63;;
66487;SDS011;53304;54.550;18.526;2023-03-04T14:54:32;1.17;;;0.60;;
66487;SDS011;53304;54.550;18.526;2023-03-04T14:59:43;0.77;;;0.50;;
66487;SDS011;53304;54.550;18.526;2023-03-04T15:04:40;2.17;;;0.70;;
66487;SDS011;53304;54.550;18.526;2023-03-04T15:07:11;1.38;;;0.60;;
66487;SDS011;53304;54.550;18.526;2023-03-04T15:09:39;0.93;;;0.50;;
66487;SDS011;53304;54.550;18.526;2023-03-04T15:12:10;1.73;;;0.70;;
66487;SDS011;53304;54.550;18.526;2023-03-04T15:14:43;1.48;;;0.40;;
66487;SDS011;53304;54.550;18.526;2023-03-04T15:17:39;1.63;;;0.60;;
66487;SDS011;53304;54.550;18.526;2023-03-04T15:22:35;1.15;;;0.50;;
66487;SDS011;53304;54.550;18.526;2023-03-04T15:25:20;2.30;;;0.50;;
66487;SDS011;53304;54.550;18.526;2023-03-04T15:27:51;1.65;;;0.60;;
66487;SDS011;53304;54.550;18.526;2023-03-04T15:30:22;0.60;;;0.38;;
66487;SDS011;53304;54.550;18.526;2023-03-04T15:32:51;0.95;;;0.50;;
66487;SDS011;53304;54.550;18.526;2023-03-04T15:35:18;1.20;;;0.50;;
66487;SDS011;53304;54.550;18.526;2023-03-04T15:37:44;1.50;;;0.80;;
66487;SDS011;53304;54.550;18.526;2023-03-04T15:40:29;2.10;;;0.80;;
66487;SDS011;53304;54.550;18.526;2023-03-04T15:42:57;1.10;;;0.63;;
66487;SDS011;53304;54.550;18.526;2023-03-04T15:45:25;1.17;;;0.60;;
66487;SDS011;53304;54.550;18.526;2023-03-04T15:47:52;1.45;;;0.60;;
66487;SDS011;53304;54.550;18.526;2023-03-04T15:50:18;1.10;;;0.63;;
66487;SDS011;53304;54.550;18.526;2023-03-04T15:52:44;1.98;;;0.68;;
66487;SDS011;53304;54.550;18.526;2023-03-04T15:55:16;1.80;;;0.70;;
66487;SDS011;53304;54.550;18.526;2023-03-04T15:57:43;1.30;;;0.63;;
66487;SDS011;53304;54.550;18.526;2023-03-04T16:00:15;2.03;;;0.60;;
66487;SDS011;53304;54.550;18.526;2023-03-04T16:02:44;0.93;;;0.60;;
66487;SDS011;53304;54.550;18.526;2023-03-04T16:05:12;2.20;;;0.70;;
66487;SDS011;53304;54.550;18.526;2023-03-04T16:07:39;1.40;;;0.70;;
66487;SDS011;53304;54.550;18.526;2023-03-04T16:12:51;1.67;;;0.70;;
66487;SDS011;53304;54.550;18.526;2023-03-04T16:15:18;1.73;;;0.70;;
66487;SDS011;53304;54.550;18.526;2023-03-04T16:17:46;1.88;;;0.60;;
66487;SDS011;53304;54.550;18.526;2023-03-04T16:20:12;1.63;;;0.65;;
66487;SDS011;53304;54.550;18.526;2023-03-04T16:22:42;1.17;;;0.70;;
66487;SDS011;53304;54.550;18.526;2023-03-04T16:25:10;0.98;;;0.63;;
66487;SDS011;53304;54.550;18.526;2023-03-04T16:27:37;1.42;;;0.60;;
66487;SDS011;53304;54.550;18.526;2023-03-04T16:30:04;5.68;;;0.90;;
66487;SDS011;53304;54.550;18.526;2023-03-04T16:32:34;4.10;;;1.25;;
66487;SDS011;53304;54.550;18.526;2023-03-04T16:34:59;11.95;;;1.20;;
66487;SDS011;53304;54.550;18.526;2023-03-04T16:37:25;8.85;;;1.05;;
66487;SDS011;53304;54.550;18.526;2023-03-04T16:39:51;4.68;;;1.00;;
66487;SDS011;53304;54.550;18.526;2023-03-04T16:42:17;3.45;;;0.70;;
66487;SDS011;53304;54.550;18.526;2023-03-04T16:44:49;4.50;;;0.88;;
66487;SDS011;53304;54.550;18.526;2023-03-04T16:47:18;3.20;;;0.85;;
66487;SDS011;53304;54.550;18.526;2023-03-04T16:49:44;5.65;;;1.08;;
66487;SDS011;53304;54.550;18.526;2023-03-04T16:54:52;2.28;;;0.60;;
66487;SDS011;53304;54.550;18.526;2023-03-04T16:57:20;3.42;;;1.00;;
66487;SDS011;53304;54.550;18.526;2023-03-04T16:59:46;1.65;;;0.80;;
66487;SDS011;53304;54.550;18.526;2023-03-04T17:02:14;4.88;;;1.20;;
66487;SDS011;53304;54.550;18.526;2023-03-04T17:04:41;2.80;;;1.30;;